Vega, Texas
Current Conditions -  °F | °C
As of 4:55 PM on Wednesday 22 Oct 2014 (Local Time) from KHRX Reporting Station
Scattered Clouds Scattered Clouds  
Wind Chill: 76°   Ceiling: Unl
Heat Index: 76°   Visibility: 10mi
Dew Point: 55°   Wind: 13mph
Humidity: 49%   Direction: 180°S
Pressure: 30.06"   Gusts: NA
Location:  35.24°N, 102.43°W
Report Text: KHRX 222155Z AUTO 18011KT 10SM SCT049 SCT055 24/13 A3006 RMK AO2 T02430130
Loading
Personal Weather Stations






























Interactive Weather Map
Tropical Storm Tracking
New forecast layout! Learn more

10-Day Weather Forecast

Advertisements
Track Severe Weather on mobile